gordon.dewis.ca
Incoming warmish damp weather on Monday
TAF CYOW 240238Z 2403/2424 09008KT P6SM SCT015 OVC050 FM240800 12010KT P6SM OVC030 TEMPO 2408/2410 5SM -RA BR OVC020 FM241000 10015KT 2SM -RA BR OVC005 TEMPO 2410/2415 1SM RA BR PROB40 2410/2415 OV…